Time;durP1;ratioP1;P1;durP2;ratioP2;P2;SDS_P1;SDS_P2;PMS_P1;PMS_P2;Temp;Humidity;BMP_temperature;BMP_pressure;BME280_temperature;BME280_humidity;BME280_pressure;Samples;Min_cycle;Max_cycle;Signal;HPM_P1;HPM_P2
2022/07/31 00:02:13;;;;;;;7.40;5.22;;;;;;;15.54;100.00;100565.50;1784158;79;21053;-78
2022/07/31 00:04:41;;;;;;;8.18;5.28;;;;;;;15.54;100.00;100565.50;1771646;79;21081;-78
2022/07/31 00:07:08;;;;;;;6.42;5.55;;;;;;;15.59;100.00;100571.87;1734750;81;21004;-77
2022/07/31 00:09:35;;;;;;;6.30;5.10;;;;;;;15.59;100.00;100569.23;1779272;80;21033;-78
2022/07/31 00:12:03;;;;;;;6.33;5.53;;;;;;;15.56;100.00;100560.15;1777538;79;21069;-77
2022/07/31 00:14:30;;;;;;;7.12;5.08;;;;;;;15.56;100.00;100560.15;1787585;79;21019;-78
2022/07/31 00:16:57;;;;;;;6.22;5.42;;;;;;;15.59;100.00;100563.94;1766948;79;21090;-78
2022/07/31 00:19:24;;;;;;;6.87;5.50;;;;;;;15.58;100.00;100560.45;1737087;81;21015;-77
2022/07/31 00:21:51;;;;;;;7.03;5.30;;;;;;;15.57;100.00;100565.80;1777317;79;21037;-79
2022/07/31 00:24:19;;;;;;;7.25;5.45;;;;;;;15.58;100.00;100568.38;1743929;81;20992;-78
2022/07/31 00:26:46;;;;;;;6.03;5.20;;;;;;;15.57;100.00;100564.05;1754489;81;21063;-78
2022/07/31 00:29:13;;;;;;;5.75;4.83;;;;;;;15.57;100.00;100560.08;1760770;80;21129;-80
2022/07/31 00:31:40;;;;;;;5.70;5.20;;;;;;;15.58;100.00;100559.61;1761046;81;21072;-80
2022/07/31 00:34:07;;;;;;;6.67;5.15;;;;;;;15.57;100.00;100564.05;1760866;80;21039;-80
2022/07/31 00:36:34;;;;;;;7.70;5.12;;;;;;;15.55;100.00;100561.95;1761087;81;20997;-80
2022/07/31 00:39:02;;;;;;;7.65;5.20;;;;;;;15.55;100.00;100561.95;1752149;81;21560;-80
2022/07/31 00:41:43;;;;;;;6.92;5.45;;;;;;;15.54;100.00;100560.70;1772690;79;21185;-78
2022/07/31 00:44:12;;;;;;;5.55;5.05;;;;;;;15.51;100.00;100553.79;1760837;81;21015;-77
2022/07/31 00:46:41;;;;;;;6.37;5.63;;;;;;;15.54;100.00;100558.05;1761017;81;21434;-78
2022/07/31 00:49:08;;;;;;;6.28;5.25;;;;;;;15.53;100.00;100553.24;1761361;81;20981;-80
2022/07/31 00:51:37;;;;;;;6.92;5.65;;;;;;;15.54;100.00;100556.26;1762229;81;21107;-78
2022/07/31 00:54:07;;;;;;;5.83;5.27;;;;;;;15.52;100.00;100559.48;1753222;81;21079;-81
2022/07/31 00:56:35;;;;;;;5.55;4.92;;;;;;;15.50;100.00;100561.34;1759725;81;21067;-81
2022/07/31 00:59:03;;;;;;;7.28;5.33;;;;;;;15.50;100.00;100562.66;1748547;81;21020;-78
2022/07/31 01:01:31;;;;;;;8.00;5.22;;;;;;;15.46;100.00;100556.30;1755098;81;21080;-78
2022/07/31 01:03:58;;;;;;;5.90;5.40;;;;;;;15.45;100.00;100563.38;1762260;81;21015;-78
2022/07/31 01:06:25;;;;;;;6.47;5.72;;;;;;;15.44;100.00;100569.61;1762279;81;21940;-78
2022/07/31 01:08:52;;;;;;;6.72;5.95;;;;;;;15.44;100.00;100567.44;1762106;81;21051;-79
2022/07/31 01:11:59;;;;;;;7.00;6.30;;;;;;;15.43;100.00;100560.44;1762805;81;21004;-78
2022/07/31 01:14:30;;;;;;;8.60;6.00;;;;;;;15.39;100.00;100556.64;1762166;81;21051;-80
2022/07/31 01:17:00;;;;;;;7.10;6.40;;;;;;;15.34;100.00;100544.63;1760204;81;21484;-80
2022/07/31 01:19:33;;;;;;;;;;;;;;;15.37;100.00;100558.98;1755356;81;21535;-78
2022/07/31 01:22:28;;;;;;;8.33;6.72;;;;;;;15.36;100.00;100555.97;1762235;81;20140;-78
2022/07/31 01:25:24;;;;;;;7.78;6.45;;;;;;;15.35;100.00;100551.59;1751770;81;21584;-79
2022/07/31 01:28:19;;;;;;;8.03;7.00;;;;;;;15.31;100.00;100547.44;1761344;81;21024;-79
2022/07/31 01:30:58;;;;;;;8.30;7.03;;;;;;;15.31;100.00;100549.60;1761540;81;21044;-80
2022/07/31 01:33:30;;;;;;;8.58;7.20;;;;;;;15.33;100.00;100552.17;1787944;80;21274;-80
2022/07/31 01:36:11;;;;;;;7.55;6.85;;;;;;;15.32;100.00;100557.89;1746508;80;21093;-79
2022/07/31 01:38:43;;;;;;;7.75;6.95;;;;;;;15.33;100.00;100553.02;1744915;81;21030;-78
2022/07/31 01:41:13;;;;;;;8.25;7.40;;;;;;;15.33;100.00;100549.53;1749209;81;21032;-79
2022/07/31 01:43:44;;;;;;;8.60;7.60;;;;;;;15.33;100.00;100553.49;1762322;81;21008;-80
2022/07/31 01:46:14;;;;;;;;;;;;;;;15.33;100.00;100551.70;1743668;81;22146;-78
2022/07/31 01:48:42;;;;;;;;;;;;;;;15.33;100.00;100553.02;1764704;81;20480;-79
2022/07/31 01:51:10;;;;;;;8.53;7.08;;;;;;;15.35;100.00;100551.16;1762350;80;20187;-79
2022/07/31 01:53:39;;;;;;;8.30;7.33;;;;;;;15.35;100.00;100543.23;1762118;81;21080;-78
2022/07/31 01:56:08;;;;;;;10.85;7.28;;;;;;;15.29;100.00;100527.70;1759690;81;21454;-79
2022/07/31 01:58:40;;;;;;;8.43;7.60;;;;;;;15.33;100.00;100535.86;1744672;81;21138;-79
2022/07/31 02:01:11;;;;;;;13.15;7.67;;;;;;;15.34;100.00;100538.02;1762571;81;21024;-79
2022/07/31 02:03:41;;;;;;;15.23;7.80;;;;;;;15.35;100.00;100533.98;1762319;81;21509;-79
2022/07/31 02:06:09;;;;;;;9.30;8.05;;;;;;;15.37;100.00;100533.89;1762117;81;20984;-79
2022/07/31 02:08:38;;;;;;;14.13;8.13;;;;;;;15.36;100.00;100527.77;1763491;81;21008;-79
2022/07/31 02:11:06;;;;;;;11.15;7.87;;;;;;;15.36;100.00;100526.91;1757018;81;22508;-80
2022/07/31 02:13:36;;;;;;;10.93;7.60;;;;;;;15.37;100.00;100523.33;1749854;81;21452;-79
2022/07/31 02:16:05;;;;;;;10.25;7.40;;;;;;;15.37;100.00;100522.85;1762721;81;21008;-77
2022/07/31 02:18:35;;;;;;;9.33;7.47;;;;;;;15.38;100.00;100521.09;1762616;81;21509;-77
2022/07/31 02:21:05;;;;;;;11.10;7.40;;;;;;;15.35;100.00;100512.86;1753563;80;21050;-76
2022/07/31 02:23:32;;;;;;;10.53;7.40;;;;;;;15.32;100.00;100509.05;1789050;80;21141;-77
2022/07/31 02:26:02;;;;;;;10.20;7.50;;;;;;;15.34;100.00;100504.53;1745056;81;21031;-81
2022/07/31 02:28:31;;;;;;;10.28;7.30;;;;;;;15.34;100.00;100504.53;1762520;81;21027;-79
2022/07/31 02:31:00;;;;;;;8.95;7.65;;;;;;;15.30;100.00;100501.70;1752703;81;21572;-78
2022/07/31 02:33:28;;;;;;;9.03;7.75;;;;;;;15.30;100.00;100502.17;1788074;80;21526;-79
2022/07/31 02:35:57;;;;;;;12.63;8.13;;;;;;;15.29;100.00;100491.20;1746928;81;21982;-79
2022/07/31 02:38:27;;;;;;;14.07;8.03;;;;;;;15.24;100.00;100490.59;1756198;81;20989;-79
2022/07/31 02:41:03;;;;;;;12.18;8.10;;;;;;;15.24;100.00;100490.59;1741237;81;21091;-79
2022/07/31 02:43:33;;;;;;;10.90;8.28;;;;;;;15.25;100.00;100491.84;1762382;81;21043;-78
2022/07/31 02:46:05;;;;;;;10.03;7.83;;;;;;;15.25;100.00;100492.33;1761998;81;21059;-79
2022/07/31 02:48:32;;;;;;;11.90;8.30;;;;;;;15.23;100.00;100483.16;1770442;81;26883;-78
2022/07/31 02:51:02;;;;;;;12.30;8.00;;;;;;;15.23;100.00;100480.98;1760800;81;21008;-79
2022/07/31 02:53:29;;;;;;;11.65;8.80;;;;;;;15.23;100.00;100484.95;1751960;81;21028;-78
2022/07/31 02:56:03;;;;;;;12.50;8.00;;;;;;;15.19;100.00;100489.55;1740321;81;21031;-79
2022/07/31 02:58:31;;;;;;;11.78;8.65;;;;;;;15.18;100.00;100490.47;1751602;81;20980;-78
2022/07/31 03:01:01;;;;;;;9.10;7.67;;;;;;;15.13;100.00;100480.63;1741228;81;21122;-78
2022/07/31 03:03:29;;;;;;;12.20;8.58;;;;;;;15.11;100.00;100481.20;1740708;81;21048;-78
2022/07/31 03:05:56;;;;;;;14.25;8.78;;;;;;;15.07;100.00;100482.28;1762292;81;21048;-78
2022/07/31 03:08:23;;;;;;;12.03;8.65;;;;;;;15.05;100.00;100481.06;1745831;81;21018;-78
2022/07/31 03:10:52;;;;;;;11.95;9.43;;;;;;;15.04;100.00;100476.70;1744821;81;21107;-78
2022/07/31 03:13:21;;;;;;;12.80;9.80;;;;;;;15.01;100.00;100472.06;1747817;81;21109;-78
2022/07/31 03:15:50;;;;;;;16.55;9.78;;;;;;;15.06;100.00;100473.99;1753876;81;21023;-79
2022/07/31 03:18:20;;;;;;;11.38;10.23;;;;;;;15.02;100.00;100479.91;1746825;81;21003;-79
2022/07/31 03:20:51;;;;;;;13.70;10.60;;;;;;;15.00;100.00;100473.02;1749182;81;28302;-79
2022/07/31 03:23:21;;;;;;;10.88;9.73;;;;;;;14.99;100.00;100473.45;1727501;81;20980;-78
2022/07/31 03:25:54;;;;;;;12.53;9.53;;;;;;;14.99;100.00;100473.45;1737324;81;21078;-78
2022/07/31 03:28:22;;;;;;;13.03;9.93;;;;;;;14.97;100.00;100472.70;1735909;81;21011;-78
2022/07/31 03:30:54;;;;;;;15.20;10.28;;;;;;;14.95;100.00;100464.86;1751756;81;21024;-78
2022/07/31 03:33:21;;;;;;;12.80;10.05;;;;;;;14.97;100.00;100458.66;1762151;81;21481;-78
2022/07/31 03:35:49;;;;;;;13.68;9.90;;;;;;;14.95;100.00;100457.41;1762538;81;20973;-78
2022/07/31 03:38:16;;;;;;;12.88;9.80;;;;;;;14.95;100.00;100457.41;1762334;81;21292;-78
2022/07/31 03:40:46;;;;;;;10.18;9.18;;;;;;;14.90;100.00;100449.73;1761324;81;21063;-79
2022/07/31 03:43:15;;;;;;;13.00;9.05;;;;;;;14.90;100.00;100449.73;1751490;81;21485;-78
2022/07/31 03:45:44;;;;;;;11.30;9.28;;;;;;;14.95;100.00;100459.58;1745110;81;21040;-78
2022/07/31 03:48:12;;;;;;;9.20;8.30;;;;;;;14.94;100.00;100461.84;1736199;81;21026;-79
2022/07/31 03:50:41;;;;;;;10.65;8.30;;;;;;;14.93;100.00;100465.88;1724983;82;21093;-78
2022/07/31 03:53:09;;;;;;;9.00;7.95;;;;;;;14.93;100.00;100462.77;1733338;81;22065;-79
2022/07/31 03:55:38;;;;;;;9.33;7.67;;;;;;;14.93;100.00;100462.77;1747149;81;21072;-79
2022/07/31 03:58:08;;;;;;;11.48;7.45;;;;;;;14.92;100.00;100459.75;1763425;79;21017;-79
2022/07/31 04:00:35;;;;;;;13.00;7.45;;;;;;;14.91;100.00;100457.20;1766492;79;21544;-78
2022/07/31 04:03:09;;;;;;;9.93;7.53;;;;;;;14.92;100.00;100457.11;1766243;79;21119;-78
2022/07/31 04:05:53;;;;;;;;;;;;;;;14.92;100.00;100461.06;1768564;80;21586;-78
2022/07/31 04:08:20;;;;;;;8.85;6.28;;;;;;;14.88;100.00;100455.59;1766210;79;20187;-78
2022/07/31 04:10:48;;;;;;;7.33;6.42;;;;;;;14.88;100.00;100455.59;1766282;81;21018;-78
2022/07/31 04:13:17;;;;;;;6.45;5.72;;;;;;;14.88;100.00;100456.03;1766439;79;21048;-78
2022/07/31 04:15:44;;;;;;;9.70;6.45;;;;;;;14.88;100.00;100451.63;1766365;80;21172;-78
2022/07/31 04:18:11;;;;;;;6.78;6.12;;;;;;;14.83;100.00;100443.10;1766338;79;20952;-78
2022/07/31 04:20:41;;;;;;;7.08;5.90;;;;;;;14.89;100.00;100453.31;1766254;80;21020;-78
2022/07/31 04:23:08;;;;;;;9.68;6.08;;;;;;;14.89;100.00;100455.95;1766459;79;21044;-77
2022/07/31 04:25:54;;;;;;;7.12;5.92;;;;;;;14.90;100.00;100452.84;1766339;81;21036;-78
2022/07/31 04:28:32;;;;;;;9.68;6.10;;;;;;;14.91;100.00;100453.25;1716393;79;21153;-78
2022/07/31 04:30:59;;;;;;;6.22;5.62;;;;;;;14.92;100.00;100450.52;1766177;79;21041;-78
2022/07/31 04:33:28;;;;;;;8.85;5.60;;;;;;;14.93;100.00;100456.16;1766215;81;21039;-78
2022/07/31 04:35:55;;;;;;;5.22;4.72;;;;;;;14.93;100.00;100456.64;1766117;81;20977;-79
2022/07/31 04:38:22;;;;;;;6.90;4.87;;;;;;;14.88;100.00;100446.80;1739891;81;21064;-78
2022/07/31 04:40:49;;;;;;;5.78;4.80;;;;;;;14.88;100.00;100446.80;1766296;79;21102;-78
2022/07/31 04:43:17;;;;;;;6.28;4.67;;;;;;;14.95;100.00;100454.30;1766432;79;21076;-78
2022/07/31 04:45:44;;;;;;;11.65;5.17;;;;;;;14.95;100.00;100454.30;1766609;79;20997;-76
2022/07/31 04:48:12;;;;;;;6.70;4.22;;;;;;;14.95;100.00;100454.30;1739654;81;21040;-78
2022/07/31 04:50:39;;;;;;;6.83;4.55;;;;;;;14.94;100.00;100451.29;1778139;78;21034;-78
2022/07/31 04:53:06;;;;;;;6.37;4.35;;;;;;;14.94;100.00;100455.25;1782431;80;21113;-78
2022/07/31 04:55:35;;;;;;;5.28;4.22;;;;;;;14.93;100.00;100452.67;1789241;80;21030;-78
2022/07/31 04:58:02;;;;;;;5.72;4.20;;;;;;;14.91;100.00;100451.93;1770650;80;21061;-78
2022/07/31 05:00:29;;;;;;;4.55;4.08;;;;;;;14.93;100.00;100453.52;1782093;80;21610;-78
2022/07/31 05:02:56;;;;;;;6.40;4.65;;;;;;;14.92;100.00;100449.19;1769362;80;21045;-78
2022/07/31 05:05:23;;;;;;;9.03;4.60;;;;;;;14.92;100.00;100451.83;1789793;80;21104;-78
2022/07/31 05:07:50;;;;;;;6.17;4.40;;;;;;;14.94;100.00;100453.92;1789759;80;21108;-78
2022/07/31 05:13:07;;;;;;;5.15;4.40;;;;;;;14.96;100.00;100456.47;1769613;80;21064;-78
2022/07/31 05:15:34;;;;;;;4.70;4.08;;;;;;;14.96;100.00;100464.38;1779117;80;21041;-78
2022/07/31 05:18:02;;;;;;;8.48;5.12;;;;;;;14.95;100.00;100463.54;1788394;80;21101;-78
2022/07/31 05:20:36;;;;;;;7.75;4.62;;;;;;;14.95;100.00;100464.02;1782022;80;21027;-78
2022/07/31 05:23:14;;;;;;;5.85;4.90;;;;;;;14.96;100.00;100473.63;1738395;80;21132;-78
2022/07/31 05:25:55;;;;;;;7.83;4.45;;;;;;;14.93;100.00;100461.91;1776395;80;21061;-76
2022/07/31 05:28:22;;;;;;;8.70;5.00;;;;;;;14.93;100.00;100461.91;1786676;80;22080;-77
2022/07/31 05:30:49;;;;;;;5.22;4.72;;;;;;;14.98;100.00;100472.23;1765249;80;21090;-77
2022/07/31 05:33:17;;;;;;;5.12;4.22;;;;;;;14.97;100.00;100474.03;1779003;80;21065;-77
2022/07/31 05:35:44;;;;;;;8.73;4.60;;;;;;;14.98;100.00;100477.52;1765460;80;21053;-79
2022/07/31 05:38:11;;;;;;;6.35;4.53;;;;;;;14.98;100.00;100477.04;1785603;80;21037;-76
2022/07/31 05:40:42;;;;;;;6.42;4.42;;;;;;;14.99;100.00;100472.61;1787002;80;21065;-76
2022/07/31 05:43:24;;;;;;;8.73;5.08;;;;;;;15.00;100.00;100473.86;1717732;80;21114;-79
2022/07/31 05:45:55;;;;;;;7.45;5.12;;;;;;;15.01;100.00;100471.59;1755089;80;21044;-77
2022/07/31 05:48:22;;;;;;;6.33;4.75;;;;;;;15.05;100.00;100469.66;1774815;80;21053;-76
2022/07/31 05:50:51;;;;;;;7.33;5.05;;;;;;;15.05;100.00;100469.66;1780270;79;21057;-78
2022/07/31 05:53:19;;;;;;;9.95;5.35;;;;;;;15.02;100.00;100466.72;1777762;80;21031;-77
2022/07/31 05:55:49;;;;;;;5.92;5.15;;;;;;;15.07;100.00;100467.29;1758666;81;21155;-77
2022/07/31 05:58:21;;;;;;;7.00;4.70;;;;;;;15.10;100.00;100472.44;1759207;80;21047;-76
2022/07/31 06:00:49;;;;;;;6.85;5.53;;;;;;;15.10;100.00;100479.03;1760467;81;21074;-77
2022/07/31 06:03:26;;;;;;;5.60;5.08;;;;;;;15.12;100.00;100468.37;1760698;81;22290;-77
2022/07/31 06:05:55;;;;;;;6.30;4.85;;;;;;;15.12;100.00;100472.33;1755665;81;21371;-77
2022/07/31 06:08:25;;;;;;;5.78;4.62;;;;;;;15.12;100.00;100469.69;1761362;81;21907;-77
2022/07/31 06:10:52;;;;;;;6.53;5.20;;;;;;;15.15;100.00;100471.69;1765104;81;21103;-77
2022/07/31 06:13:25;;;;;;;6.33;5.72;;;;;;;15.17;100.00;100471.14;1758466;81;21102;-78
2022/07/31 06:15:54;;;;;;;6.65;5.37;;;;;;;15.22;100.00;100471.37;1757664;81;21059;-77
2022/07/31 06:18:22;;;;;;;6.70;5.72;;;;;;;15.23;100.00;100466.46;1765058;81;21070;-76
2022/07/31 06:20:50;;;;;;;5.80;5.23;;;;;;;15.25;100.00;100472.05;1762737;80;21095;-77
2022/07/31 06:23:17;;;;;;;6.50;5.30;;;;;;;15.30;100.00;100471.33;1765848;80;21468;-78
2022/07/31 06:25:45;;;;;;;9.38;5.70;;;;;;;15.30;100.00;100471.33;1765490;80;21564;-76
2022/07/31 06:28:12;;;;;;;6.30;5.67;;;;;;;15.33;100.00;100477.75;1753943;81;21063;-77
2022/07/31 06:30:40;;;;;;;6.67;5.47;;;;;;;15.34;100.00;100479.45;1756998;81;21333;-77
2022/07/31 06:33:07;;;;;;;8.13;5.45;;;;;;;15.37;100.00;100475.78;1755437;81;21139;-79
2022/07/31 06:35:35;;;;;;;9.25;6.55;;;;;;;15.42;100.00;100484.78;1764614;81;21066;-77
2022/07/31 06:38:23;;;;;;;7.72;5.55;;;;;;;15.44;100.00;100480.28;1754892;81;21048;-77
2022/07/31 06:41:00;;;;;;;;;;;;;;;15.47;100.00;100482.74;1714485;83;21327;-75
2022/07/31 06:43:35;;;;;;;6.90;4.80;;;;;;;15.51;100.00;100481.62;1758799;80;20504;-74
2022/07/31 06:46:21;;;;;;;6.78;5.50;;;;;;;15.53;100.00;100478.42;1762464;80;21297;-75
2022/07/31 06:49:06;;;;;;;10.63;5.28;;;;;;;15.57;100.00;100477.30;1760251;81;21063;-76
2022/07/31 06:51:34;;;;;;;8.08;5.70;;;;;;;15.59;100.00;100480.72;1765014;80;21497;-78
2022/07/31 06:54:04;;;;;;;8.20;5.55;;;;;;;15.59;100.00;100477.60;1766103;80;21480;-76
2022/07/31 06:56:32;;;;;;;7.97;5.30;;;;;;;15.64;100.00;100478.67;1764997;80;21075;-77
2022/07/31 06:59:02;;;;;;;5.95;5.35;;;;;;;15.67;100.00;100482.45;1765652;80;21913;-76
2022/07/31 07:01:29;;;;;;;5.95;5.35;;;;;;;15.68;100.00;100485.50;1754161;80;21080;-77
2022/07/31 07:03:57;;;;;;;12.30;5.87;;;;;;;15.73;100.00;100484.78;1772310;80;21066;-77
2022/07/31 07:06:26;;;;;;;8.35;5.60;;;;;;;15.78;100.00;100482.72;1753777;80;21051;-77
2022/07/31 07:08:53;;;;;;;7.67;5.42;;;;;;;15.84;100.00;100485.48;1765440;80;21110;-76
2022/07/31 07:11:21;;;;;;;6.72;5.33;;;;;;;15.87;100.00;100479.17;1766601;80;21498;-76
2022/07/31 07:13:48;;;;;;;6.85;5.85;;;;;;;15.91;100.00;100488.17;1763542;79;21095;-76
2022/07/31 07:16:16;;;;;;;7.35;5.60;;;;;;;15.93;100.00;100482.30;1763079;79;21081;-77
2022/07/31 07:18:44;;;;;;;7.30;5.55;;;;;;;15.97;100.00;100483.84;1764300;79;21443;-76
2022/07/31 07:21:11;;;;;;;6.90;5.47;;;;;;;16.01;100.00;100488.47;1765616;80;21059;-76
2022/07/31 07:23:38;;;;;;;8.60;5.53;;;;;;;16.05;100.00;100485.57;1763684;80;22205;-76
2022/07/31 07:26:17;;;;;;;6.53;5.70;;;;;;;16.07;100.00;100485.46;1764402;80;22069;-77
2022/07/31 07:28:46;;;;;;;6.20;5.40;;;;;;;16.10;100.00;100489.28;1764051;79;21044;-76
2022/07/31 07:31:14;;;;;;;6.70;6.00;;;;;;;16.15;100.00;100479.73;1764181;80;21442;-78
2022/07/31 07:33:41;;;;;;;9.40;5.97;;;;;;;16.19;100.00;100485.23;1765133;81;21016;-76
2022/07/31 07:36:20;;;;;;;8.08;5.45;;;;;;;16.25;100.00;100481.75;1765421;79;39157;-76
2022/07/31 07:38:49;;;;;;;7.35;6.03;;;;;;;16.32;100.00;100484.86;1764627;81;21020;-76
2022/07/31 07:41:17;;;;;;;5.95;5.45;;;;;;;16.39;100.00;100490.19;1762378;79;21670;-76
2022/07/31 07:43:44;;;;;;;8.58;5.65;;;;;;;16.47;100.00;100491.05;1764580;79;21047;-77
2022/07/31 07:46:11;;;;;;;7.25;5.12;;;;;;;16.55;100.00;100486.16;1764440;79;21537;-76
2022/07/31 07:48:40;;;;;;;6.15;5.40;;;;;;;16.64;100.00;100484.27;1764079;79;22028;-78
2022/07/31 07:51:15;;;;;;;6.97;5.33;;;;;;;16.73;100.00;100481.52;1765458;80;21580;-77
2022/07/31 07:53:44;;;;;;;8.73;5.22;;;;;;;16.83;100.00;100481.37;1760284;81;21071;-77
2022/07/31 07:56:29;;;;;;;5.70;4.55;;;;;;;16.90;100.00;100476.09;1763162;79;20960;-77
2022/07/31 07:58:59;;;;;;;6.50;4.65;;;;;;;17.00;100.00;100479.00;1765529;81;21065;-76
2022/07/31 08:01:45;;;;;;;8.85;4.90;;;;;;;17.07;100.00;100480.33;1764109;81;21121;-77
2022/07/31 08:04:16;;;;;;;8.15;4.70;;;;;;;17.17;100.00;100477.94;1763302;79;21031;-77
2022/07/31 08:06:43;;;;;;;9.03;4.58;;;;;;;17.26;100.00;100477.81;1764834;80;21039;-78
2022/07/31 08:09:11;;;;;;;6.72;4.70;;;;;;;17.34;100.00;100479.51;1764580;80;21086;-77
2022/07/31 08:11:39;;;;;;;7.25;4.53;;;;;;;17.43;100.00;100478.94;1717151;80;21105;-78
2022/07/31 08:14:09;;;;;;;8.80;3.87;;;;;;;17.54;99.78;100472.47;1764192;80;22090;-78
2022/07/31 08:16:36;;;;;;;5.00;3.35;;;;;;;17.59;99.56;100463.72;1763531;79;20979;-82
2022/07/31 08:19:03;;;;;;;8.23;3.62;;;;;;;17.75;99.36;100472.84;1763901;81;21613;-78
2022/07/31 08:21:33;;;;;;;7.00;4.10;;;;;;;17.88;99.18;100467.63;1763710;80;21034;-77
2022/07/31 08:24:01;;;;;;;6.67;3.12;;;;;;;18.00;98.76;100471.26;1763409;79;21027;-78
2022/07/31 08:27:22;;;;;;;6.97;4.17;;;;;;;18.12;98.50;100465.11;1766169;81;21115;-76
2022/07/31 08:28:57;;;;;;;14.73;3.05;;;;;;;18.22;97.96;100470.19;1758058;81;21043;-77
2022/07/31 08:31:26;;;;;;;4.28;3.40;;;;;;;18.34;98.07;100468.97;1768637;80;21028;-76
2022/07/31 08:33:54;;;;;;;3.75;3.10;;;;;;;18.45;97.38;100463.30;1766023;79;21226;-78
2022/07/31 08:36:23;;;;;;;5.70;2.62;;;;;;;18.54;97.24;100459.18;1759325;80;20990;-77
2022/07/31 08:38:51;;;;;;;6.65;2.92;;;;;;;18.65;96.98;100464.59;1754313;81;21092;-77
2022/07/31 08:41:41;;;;;;;3.50;2.45;;;;;;;18.77;96.80;100458.92;1755407;81;21441;-76
2022/07/31 08:44:08;;;;;;;;;;;;;;;18.93;96.40;100459.55;1761925;79;21047;-76
2022/07/31 08:46:38;;;;;;;7.87;2.52;;;;;;;19.07;95.51;100458.56;1758472;81;20469;-76
2022/07/31 08:49:08;;;;;;;4.35;2.00;;;;;;;19.17;95.16;100458.73;1760901;81;21101;-77
2022/07/31 08:51:38;;;;;;;5.53;1.82;;;;;;;19.33;94.83;100464.64;1752856;81;21390;-77
2022/07/31 08:54:14;;;;;;;3.90;1.95;;;;;;;19.47;94.25;100459.64;1747124;81;20984;-77
2022/07/31 08:56:42;;;;;;;4.67;1.80;;;;;;;19.62;93.60;100459.02;1738370;81;20957;-75
2022/07/31 08:59:16;;;;;;;4.05;1.72;;;;;;;19.72;92.88;100457.38;1737994;79;20968;-76
2022/07/31 09:01:41;;;;;;;4.53;1.75;;;;;;;19.83;92.55;100461.91;1738192;79;21028;-77
2022/07/31 09:04:09;;;;;;;3.77;1.65;;;;;;;20.00;92.64;100452.16;1737950;81;21137;-74
2022/07/31 09:06:37;;;;;;;4.58;1.70;;;;;;;20.16;91.67;100453.67;1745642;79;21028;-76
2022/07/31 09:09:05;;;;;;;4.67;1.50;;;;;;;20.31;91.33;100449.83;1770305;81;22023;-76
2022/07/31 09:11:33;;;;;;;4.95;1.60;;;;;;;20.43;90.23;100450.23;1765783;80;21068;-78
2022/07/31 09:14:34;;;;;;;3.62;1.55;;;;;;;20.55;89.85;100445.78;1679794;83;21160;-77
2022/07/31 09:17:14;;;;;;;5.05;1.40;;;;;;;20.68;89.22;100439.03;1726348;79;21595;-76
2022/07/31 09:19:41;;;;;;;5.37;1.55;;;;;;;20.78;88.36;100441.80;1781395;80;21484;-76
2022/07/31 09:22:23;;;;;;;3.95;1.65;;;;;;;20.86;88.26;100440.70;1765340;80;20987;-77
2022/07/31 09:24:51;;;;;;;4.30;1.40;;;;;;;21.01;88.44;100438.66;1750637;80;21476;-78
2022/07/31 09:27:21;;;;;;;3.52;1.62;;;;;;;21.18;87.55;100435.47;1743185;81;21445;-78
2022/07/31 09:29:48;;;;;;;2.92;1.55;;;;;;;21.34;87.18;100435.08;1757672;81;22097;-77
2022/07/31 09:32:23;;;;;;;5.33;1.07;;;;;;;21.45;86.43;100435.53;1760453;80;21512;-77
2022/07/31 09:34:52;;;;;;;3.27;1.10;;;;;;;21.54;85.53;100434.31;1786254;80;20999;-77
2022/07/31 09:37:23;;;;;;;5.20;1.55;;;;;;;21.65;84.61;100437.42;1762502;81;21530;-78
2022/07/31 09:40:09;;;;;;;3.17;1.20;;;;;;;21.74;83.86;100434.48;1769249;81;20976;-76
2022/07/31 09:42:54;;;;;;;3.70;1.20;;;;;;;21.86;83.21;100427.26;1748222;81;21256;-78
2022/07/31 09:45:24;;;;;;;2.35;1.00;;;;;;;22.01;82.70;100429.98;1763029;80;21249;-79
2022/07/31 09:48:09;;;;;;;2.55;1.12;;;;;;;22.12;81.85;100427.75;1760322;81;21043;-77
2022/07/31 09:50:37;;;;;;;2.72;1.47;;;;;;;22.19;81.13;100424.92;1755152;80;21548;-78
2022/07/31 09:53:05;;;;;;;1.50;0.80;;;;;;;22.30;80.79;100424.01;1770837;79;21379;-84
2022/07/31 09:55:34;;;;;;;2.93;1.17;;;;;;;22.41;79.99;100411.91;1786306;80;21190;-80
2022/07/31 09:58:02;;;;;;;2.85;0.90;;;;;;;22.54;79.69;100419.72;1783759;80;21011;-82
2022/07/31 10:00:31;;;;;;;5.12;1.30;;;;;;;22.67;78.94;100416.34;1764906;80;21279;-84
2022/07/31 10:03:00;;;;;;;4.10;1.20;;;;;;;22.80;78.48;100420.09;1762633;81;21070;-77
2022/07/31 10:05:28;;;;;;;3.03;1.00;;;;;;;22.92;77.67;100425.22;1792105;79;21027;-77
2022/07/31 10:07:59;;;;;;;3.35;1.65;;;;;;;23.06;77.04;100416.50;1790246;79;21199;-77
2022/07/31 10:10:29;;;;;;;3.02;1.10;;;;;;;23.20;76.62;100412.59;1711189;78;21031;-77
2022/07/31 10:13:05;;;;;;;2.90;1.17;;;;;;;23.34;76.22;100421.05;1789505;78;21026;-76
2022/07/31 10:15:36;;;;;;;2.15;1.10;;;;;;;23.45;75.21;100420.08;1795695;79;21083;-76
2022/07/31 10:18:11;;;;;;;2.27;0.80;;;;;;;23.56;74.45;100419.10;1750168;79;21373;-83
2022/07/31 10:20:59;;;;;;;4.60;0.90;;;;;;;23.74;73.86;100413.91;1782463;79;21138;-78
2022/07/31 10:23:36;;;;;;;4.22;1.55;;;;;;;23.94;72.59;100416.07;1780492;80;21044;-79
2022/07/31 10:26:04;;;;;;;4.83;0.85;;;;;;;24.21;72.22;100413.48;1783190;78;21032;-76
2022/07/31 10:28:34;;;;;;;4.60;1.00;;;;;;;24.46;71.13;100412.03;1791064;79;21048;-80
2022/07/31 10:31:02;;;;;;;1.00;0.60;;;;;;;24.74;70.62;100411.23;1782345;80;21517;-79
2022/07/31 10:33:31;;;;;;;2.07;0.77;;;;;;;24.98;69.14;100409.36;1795888;79;21462;-78
2022/07/31 10:36:13;;;;;;;1.07;0.82;;;;;;;25.19;68.46;100397.91;1718790;83;21867;-76
2022/07/31 10:39:28;;;;;;;3.80;0.90;;;;;;;25.53;67.71;100407.96;1783870;79;21023;-83
2022/07/31 10:42:05;;;;;;;1.47;0.70;;;;;;;25.74;66.83;100405.78;1714643;83;21003;-79
2022/07/31 10:44:41;;;;;;;3.10;0.82;;;;;;;26.01;65.70;100415.59;1755071;79;21031;-80
2022/07/31 10:47:28;;;;;;;1.32;0.82;;;;;;;26.18;64.65;100406.31;1789873;79;21149;-81
2022/07/31 10:50:07;;;;;;;1.82;0.70;;;;;;;26.42;63.89;100410.50;1789628;80;21102;-88
2022/07/31 10:52:41;;;;;;;2.95;0.65;;;;;;;26.51;62.58;100397.98;1787134;79;21533;-80
2022/07/31 10:55:21;;;;;;;2.55;0.80;;;;;;;26.74;62.38;100406.30;1790431;80;21055;-77
2022/07/31 10:57:50;;;;;;;4.03;0.85;;;;;;;26.97;61.67;100403.06;1734904;80;21051;-81
2022/07/31 11:00:28;;;;;;;3.98;0.70;;;;;;;27.15;60.68;100402.42;1769003;79;22650;-77
2022/07/31 11:02:57;;;;;;;4.92;0.70;;;;;;;27.32;60.23;100396.59;1768590;80;21060;-78
2022/07/31 11:05:27;;;;;;;3.37;0.70;;;;;;;27.49;59.23;100397.45;1759986;80;21517;-79
2022/07/31 11:08:06;;;;;;;1.72;0.70;;;;;;;27.67;58.54;100397.32;1760987;80;21485;-81
2022/07/31 11:10:43;;;;;;;3.42;0.75;;;;;;;27.78;57.75;100397.81;1742864;80;21512;-78
2022/07/31 11:13:14;;;;;;;0.93;0.60;;;;;;;27.79;56.49;100399.52;1759741;80;21130;-80
2022/07/31 11:16:06;;;;;;;3.58;0.62;;;;;;;27.94;55.87;100402.91;1721575;80;21071;-78
2022/07/31 11:18:46;;;;;;;2.35;1.00;;;;;;;28.04;55.13;100396.81;1760515;80;20996;-77
2022/07/31 11:21:12;;;;;;;3.80;0.82;;;;;;;28.23;54.99;100403.18;1780529;80;21043;-83
2022/07/31 11:23:40;;;;;;;0.87;0.60;;;;;;;28.37;54.22;100402.98;1740607;81;21071;-82
2022/07/31 11:26:08;;;;;;;0.50;0.50;;;;;;;28.40;53.20;100399.10;1759816;80;21526;-79
2022/07/31 11:28:36;;;;;;;2.45;0.70;;;;;;;28.46;52.76;100403.83;1761705;80;21047;-77
2022/07/31 11:31:06;;;;;;;2.17;0.70;;;;;;;28.57;52.15;100392.70;1760478;80;21011;-78
2022/07/31 11:33:42;;;;;;;2.92;0.75;;;;;;;28.65;52.01;100394.50;1779756;80;21560;-78
2022/07/31 11:36:16;;;;;;;0.88;0.50;;;;;;;28.67;51.02;100404.09;1790519;79;21011;-79
2022/07/31 11:38:49;;;;;;;2.83;0.68;;;;;;;28.71;51.11;100402.40;1790484;80;22033;-80
2022/07/31 11:41:17;;;;;;;1.37;0.70;;;;;;;28.78;50.33;100393.95;1780598;80;21544;-79